Terminal Aerodrome Forecast
Issued by NWS Cleveland, OH

Home | Current Version | Previous Version | Graphics & Text | Print | Product List | Glossary On
Versions: 1 2 3 4 5 6 7 8 9 10 11 12 13 14 15 16 17 18 19 20 21 22 23 24 25 26 27 28 29
771
FTUS41 KCLE 271720
TAFCLE
TAF
KCLE 271720Z 2718/2824 20008KT P6SM OVC050
     FM281400 16008KT 5SM -SHRA OVC025 PROB30 2814/2817 4SM -SHRA
      OVC010
     FM281700 19014KT 6SM BR VCSH OVC020
     FM282100 19015G25KT P6SM OVC050=

USA.gov is the U.S. government's official web portal to all federal, state and local government web resources and services.